Wetterdaten: aktuell Dienstag, 13.11.2018 20:50
Datum Zeit Temp. A. Temp. 2 Feuchte A. Luftdruck Regen Wind Richtung Richtung Sonnenschein Windben
13.11.2018 20:50 9,5 C 8,9 C 90 % 1023,1 hPa 0,0 l/m 8,0 km/h (2 Bft) W 270 0 min 20,9 km/h (4 Bft)
13.11.2018 20:45 9,6 C 8,9 C 90 % 1023,0 hPa 0,0 l/m 8,0 km/h (2 Bft) W-SW 247 0 min 19,3 km/h (3 Bft)
13.11.2018 20:40 9,6 C 8,9 C 91 % 1023,0 hPa 0,0 l/m 6,4 km/h (2 Bft) W-SW 247 0 min 16,1 km/h (3 Bft)
13.11.2018 20:35 9,6 C 8,9 C 91 % 1023,0 hPa 0,0 l/m 9,7 km/h (2 Bft) W-SW 247 0 min 24,1 km/h (4 Bft)
13.11.2018 20:30 9,6 C 8,9 C 91 % 1022,9 hPa 0,0 l/m 8,0 km/h (2 Bft) W-SW 247 0 min 19,3 km/h (3 Bft)
13.11.2018 20:25 9,6 C 8,9 C 91 % 1023,0 hPa 0,0 l/m 9,7 km/h (2 Bft) W 270 0 min 22,5 km/h (4 Bft)
13.11.2018 20:20 9,6 C 8,9 C 91 % 1022,9 hPa 0,0 l/m 6,4 km/h (2 Bft) W-SW 247 0 min 11,3 km/h (2 Bft)
13.11.2018 20:15 9,6 C 8,9 C 91 % 1022,9 hPa 0,0 l/m 8,0 km/h (2 Bft) W-SW 247 0 min 20,9 km/h (4 Bft)
13.11.2018 20:10 9,6 C 8,9 C 91 % 1022,8 hPa 0,0 l/m 8,0 km/h (2 Bft) W-SW 247 0 min 19,3 km/h (3 Bft)
13.11.2018 20:05 9,6 C 8,9 C 92 % 1022,7 hPa 0,0 l/m 6,4 km/h (2 Bft) W-SW 247 0 min 19,3 km/h (3 Bft)
13.11.2018 20:00 9,6 C 8,9 C 92 % 1022,7 hPa 0,0 l/m 8,0 km/h (2 Bft) W-SW 247 0 min 19,3 km/h (3 Bft)
13.11.2018 19:55 9,6 C 8,9 C 92 % 1022,6 hPa 0,0 l/m 9,7 km/h (2 Bft) W-SW 247 0 min 22,5 km/h (4 Bft)
13.11.2018 19:50 9,6 C 8,9 C 92 % 1022,6 hPa 0,0 l/m 8,0 km/h (2 Bft) W-SW 247 0 min 22,5 km/h (4 Bft)
13.11.2018 19:45 9,6 C 8,9 C 92 % 1022,5 hPa 0,0 l/m 6,4 km/h (2 Bft) W-SW 247 0 min 19,3 km/h (3 Bft)
13.11.2018 19:40 9,6 C 8,9 C 92 % 1022,5 hPa 0,0 l/m 8,0 km/h (2 Bft) SW 225 0 min 17,7 km/h (3 Bft)
13.11.2018 19:35 9,5 C 8,9 C 92 % 1022,4 hPa 0,0 l/m 6,4 km/h (2 Bft) SW 225 0 min 12,9 km/h (3 Bft)
13.11.2018 19:30 9,5 C 8,9 C 92 % 1022,4 hPa 0,0 l/m 6,4 km/h (2 Bft) W-SW 247 0 min 14,5 km/h (3 Bft)
13.11.2018 19:25 9,5 C 8,9 C 92 % 1022,4 hPa 0,0 l/m 6,4 km/h (2 Bft) SW 225 0 min 14,5 km/h (3 Bft)
13.11.2018 19:20 9,5 C 8,9 C 92 % 1022,4 hPa 0,0 l/m 9,7 km/h (2 Bft) W-SW 247 0 min 19,3 km/h (3 Bft)
13.11.2018 19:15 9,5 C 8,9 C 92 % 1022,4 hPa 0,0 l/m 4,8 km/h (1 Bft) W-SW 247 0 min 12,9 km/h (3 Bft)
13.11.2018 19:10 9,4 C 8,9 C 92 % 1022,4 hPa 0,0 l/m 9,7 km/h (2 Bft) W 270 0 min 19,3 km/h (3 Bft)
13.11.2018 19:05 9,4 C 8,9 C 92 % 1022,3 hPa 0,0 l/m 8,0 km/h (2 Bft) W 270 0 min 24,1 km/h (4 Bft)
13.11.2018 19:00 9,4 C 8,9 C 92 % 1022,2 hPa 0,0 l/m 9,7 km/h (2 Bft) W-SW 247 0 min 20,9 km/h (4 Bft)
13.11.2018 18:55 9,4 C 8,9 C 92 % 1022,1 hPa 0,0 l/m 6,4 km/h (2 Bft) W-SW 247 0 min 16,1 km/h (3 Bft)
13.11.2018 18:50 9,4 C 8,9 C 92 % 1022,1 hPa 0,0 l/m 6,4 km/h (2 Bft) SW 225 0 min 14,5 km/h (3 Bft)
13.11.2018 18:45 9,4 C 8,9 C 92 % 1022,2 hPa 0,0 l/m 8,0 km/h (2 Bft) W-SW 247 0 min 16,1 km/h (3 Bft)
13.11.2018 18:40 9,4 C 8,9 C 92 % 1022,1 hPa 0,0 l/m 6,4 km/h (2 Bft) W-SW 247 0 min 12,9 km/h (3 Bft)
13.11.2018 18:35 9,5 C 8,9 C 92 % 1022,0 hPa 0,0 l/m 8,0 km/h (2 Bft) W-SW 247 0 min 14,5 km/h (3 Bft)
13.11.2018 18:30 9,6 C 8,9 C 92 % 1022,0 hPa 0,0 l/m 8,0 km/h (2 Bft) W-SW 247 0 min 19,3 km/h (3 Bft)
13.11.2018 18:25 9,6 C 8,3 C 92 % 1021,9 hPa 0,0 l/m 8,0 km/h (2 Bft) W-SW 247 0 min 22,5 km/h (4 Bft)
13.11.2018 18:20 9,7 C 8,3 C 92 % 1021,9 hPa 0,0 l/m 8,0 km/h (2 Bft) W-SW 247 0 min 17,7 km/h (3 Bft)
13.11.2018 18:15 9,7 C 8,9 C 91 % 1021,9 hPa 0,2 l/m 4,8 km/h (1 Bft) W-SW 247 0 min 17,7 km/h (3 Bft)
13.11.2018 18:10 9,7 C 8,9 C 91 % 1021,8 hPa 0,0 l/m 3,2 km/h (1 Bft) SW 225 0 min 9,7 km/h (2 Bft)
13.11.2018 18:05 9,7 C 8,9 C 91 % 1021,7 hPa 0,0 l/m 6,4 km/h (2 Bft) W-SW 247 0 min 17,7 km/h (3 Bft)
13.11.2018 18:00 9,6 C 8,9 C 91 % 1021,7 hPa 0,0 l/m 8,0 km/h (2 Bft) W-SW 247 0 min 16,1 km/h (3 Bft)
13.11.2018 17:55 9,6 C 8,9 C 91 % 1021,6 hPa 0,0 l/m 11,3 km/h (2 Bft) W-SW 247 0 min 24,1 km/h (4 Bft)
13.11.2018 17:50 9,6 C 8,9 C 91 % 1021,6 hPa 0,0 l/m 9,7 km/h (2 Bft) SW 225 0 min 22,5 km/h (4 Bft)
13.11.2018 17:45 9,6 C 8,9 C 91 % 1021,5 hPa 0,0 l/m 8,0 km/h (2 Bft) SW 225 0 min 24,1 km/h (4 Bft)
13.11.2018 17:40 9,6 C 8,9 C 91 % 1021,4 hPa 0,0 l/m 8,0 km/h (2 Bft) SW 225 0 min 14,5 km/h (3 Bft)
13.11.2018 17:35 9,6 C 8,9 C 91 % 1021,3 hPa 0,0 l/m 6,4 km/h (2 Bft) SW 225 0 min 16,1 km/h (3 Bft)
13.11.2018 17:30 9,6 C 8,9 C 91 % 1021,3 hPa 0,0 l/m 6,4 km/h (2 Bft) SW 225 0 min 17,7 km/h (3 Bft)
13.11.2018 17:25 9,6 C 8,9 C 91 % 1021,2 hPa 0,0 l/m 6,4 km/h (2 Bft) SW 225 0 min 14,5 km/h (3 Bft)
13.11.2018 17:20 9,6 C 8,9 C 91 % 1021,1 hPa 0,0 l/m 4,8 km/h (1 Bft) SW 225 0 min 11,3 km/h (2 Bft)
13.11.2018 17:15 9,6 C 8,9 C 91 % 1021,1 hPa 0,0 l/m 8,0 km/h (2 Bft) SW 225 0 min 17,7 km/h (3 Bft)
13.11.2018 17:10 9,6 C 8,9 C 91 % 1021,1 hPa 0,0 l/m 6,4 km/h (2 Bft) SW 225 0 min 11,3 km/h (2 Bft)
13.11.2018 17:05 9,6 C 8,9 C 91 % 1021,0 hPa 0,0 l/m 6,4 km/h (2 Bft) SW 225 0 min 14,5 km/h (3 Bft)
13.11.2018 17:00 9,6 C 8,9 C 91 % 1021,0 hPa 0,0 l/m 4,8 km/h (1 Bft) SW 225 0 min 12,9 km/h (3 Bft)
13.11.2018 16:55 9,6 C 8,9 C 91 % 1020,9 hPa 0,0 l/m 4,8 km/h (1 Bft) SW 225 0 min 14,5 km/h (3 Bft)
13.11.2018 16:50 9,6 C 8,3 C 91 % 1020,9 hPa 0,0 l/m 6,4 km/h (2 Bft) SW 225 0 min 12,9 km/h (3 Bft)
13.11.2018 16:45 9,6 C 8,3 C 91 % 1020,8 hPa 0,0 l/m 8,0 km/h (2 Bft) SW 225 0 min 17,7 km/h (3 Bft)
13.11.2018 16:40 9,7 C 8,3 C 91 % 1020,7 hPa 0,0 l/m 8,0 km/h (2 Bft) SW 225 0 min 16,1 km/h (3 Bft)
13.11.2018 16:35 9,8 C 8,3 C 91 % 1020,7 hPa 0,0 l/m 8,0 km/h (2 Bft) SW 225 0 min 16,1 km/h (3 Bft)
13.11.2018 16:30 9,8 C 8,3 C 91 % 1020,8 hPa 0,0 l/m 6,4 km/h (2 Bft) SW 225 0 min 17,7 km/h (3 Bft)
13.11.2018 16:25 9,9 C 8,3 C 91 % 1020,7 hPa 0,0 l/m 6,4 km/h (2 Bft) SW 225 0 min 16,1 km/h (3 Bft)
13.11.2018 16:20 9,9 C 8,9 C 91 % 1020,6 hPa 0,0 l/m 6,4 km/h (2 Bft) W-SW 247 0 min 19,3 km/h (3 Bft)
13.11.2018 16:15 10,0 C 8,9 C 91 % 1020,5 hPa 0,0 l/m 4,8 km/h (1 Bft) SW 225 0 min 16,1 km/h (3 Bft)
13.11.2018 16:10 10,1 C 8,9 C 91 % 1020,5 hPa 0,0 l/m 8,0 km/h (2 Bft) SW 225 5 min 16,1 km/h (3 Bft)
13.11.2018 16:05 10,1 C 8,9 C 91 % 1020,4 hPa 0,0 l/m 4,8 km/h (1 Bft) SW 225 5 min 14,5 km/h (3 Bft)
13.11.2018 16:00 10,1 C 9,4 C 91 % 1020,3 hPa 0,0 l/m 8,0 km/h (2 Bft) W-SW 247 5 min 20,9 km/h (4 Bft)
13.11.2018 15:55 10,2 C 9,4 C 91 % 1020,3 hPa 0,0 l/m 8,0 km/h (2 Bft) SW 225 0 min 17,7 km/h (3 Bft)
13.11.2018 15:50 10,2 C 9,4 C 91 % 1020,2 hPa 0,0 l/m 8,0 km/h (2 Bft) SW 225 0 min 19,3 km/h (3 Bft)
13.11.2018 15:45 10,3 C 10,0 C 91 % 1020,1 hPa 0,0 l/m 9,7 km/h (2 Bft) SW 225 5 min 20,9 km/h (4 Bft)
13.11.2018 15:40 10,3 C 10,0 C 92 % 1020,0 hPa 0,0 l/m 8,0 km/h (2 Bft) SW 225 5 min 14,5 km/h (3 Bft)
13.11.2018 15:35 10,3 C 10,0 C 92 % 1020,0 hPa 0,0 l/m 6,4 km/h (2 Bft) W-SW 247 0 min 16,1 km/h (3 Bft)
13.11.2018 15:30 10,3 C 10,0 C 92 % 1019,9 hPa 0,0 l/m 6,4 km/h (2 Bft) SW 225 0 min 14,5 km/h (3 Bft)
13.11.2018 15:25 10,3 C 11,1 C 92 % 1019,9 hPa 0,0 l/m 6,4 km/h (2 Bft) SW 225 0 min 16,1 km/h (3 Bft)
13.11.2018 15:20 10,3 C 11,7 C 92 % 1019,8 hPa 0,0 l/m 8,0 km/h (2 Bft) SW 225 5 min 19,3 km/h (3 Bft)
13.11.2018 15:15 10,3 C 11,1 C 92 % 1019,8 hPa 0,0 l/m 8,0 km/h (2 Bft) SW 225 5 min 16,1 km/h (3 Bft)
13.11.2018 15:10 10,3 C 11,7 C 93 % 1019,7 hPa 0,0 l/m 8,0 km/h (2 Bft) SW 225 5 min 16,1 km/h (3 Bft)
13.11.2018 15:05 10,2 C 12,8 C 93 % 1019,7 hPa 0,0 l/m 6,4 km/h (2 Bft) W-SW 247 5 min 16,1 km/h (3 Bft)
13.11.2018 15:00 9,9 C 11,7 C 93 % 1019,6 hPa 0,0 l/m 8,0 km/h (2 Bft) W-SW 247 5 min 22,5 km/h (4 Bft)
13.11.2018 14:55 9,9 C 10,0 C 92 % 1019,6 hPa 0,0 l/m 6,4 km/h (2 Bft) SW 225 0 min 16,1 km/h (3 Bft)
13.11.2018 14:50 9,9 C 9,4 C 92 % 1019,6 hPa 0,0 l/m 4,8 km/h (1 Bft) SW 225 0 min 14,5 km/h (3 Bft)
13.11.2018 14:45 9,9 C 9,4 C 92 % 1019,6 hPa 0,0 l/m 6,4 km/h (2 Bft) SW 225 0 min 16,1 km/h (3 Bft)
13.11.2018 14:40 9,9 C 9,4 C 92 % 1019,6 hPa 0,2 l/m 4,8 km/h (1 Bft) SW 225 0 min 12,9 km/h (3 Bft)
13.11.2018 14:35 9,9 C 9,4 C 92 % 1019,5 hPa 0,0 l/m 8,0 km/h (2 Bft) SW 225 0 min 16,1 km/h (3 Bft)
13.11.2018 14:30 10,0 C 9,4 C 92 % 1019,5 hPa 0,0 l/m 6,4 km/h (2 Bft) SW 225 0 min 17,7 km/h (3 Bft)
13.11.2018 14:25 10,1 C 8,9 C 92 % 1019,5 hPa 0,0 l/m 9,7 km/h (2 Bft) SW 225 0 min 20,9 km/h (4 Bft)
13.11.2018 14:20 10,1 C 9,4 C 91 % 1019,5 hPa 0,0 l/m 6,4 km/h (2 Bft) W-SW 247 0 min 17,7 km/h (3 Bft)
13.11.2018 14:15 10,1 C 8,9 C 92 % 1019,4 hPa 0,2 l/m 9,7 km/h (2 Bft) SW 225 0 min 17,7 km/h (3 Bft)
13.11.2018 14:10 10,1 C 9,4 C 91 % 1019,4 hPa 0,0 l/m 6,4 km/h (2 Bft) SW 225 0 min 14,5 km/h (3 Bft)
13.11.2018 14:05 10,1 C 9,4 C 91 % 1019,4 hPa 0,0 l/m 9,7 km/h (2 Bft) SW 225 0 min 19,3 km/h (3 Bft)
13.11.2018 14:00 10,2 C 9,4 C 91 % 1019,3 hPa 0,0 l/m 6,4 km/h (2 Bft) SW 225 0 min 20,9 km/h (4 Bft)
13.11.2018 13:55 10,2 C 9,4 C 91 % 1019,3 hPa 0,0 l/m 6,4 km/h (2 Bft) SW 225 0 min 16,1 km/h (3 Bft)
13.11.2018 13:50 10,3 C 9,4 C 91 % 1019,3 hPa 0,0 l/m 8,0 km/h (2 Bft) SW 225 0 min 16,1 km/h (3 Bft)
13.11.2018 13:45 10,3 C 9,4 C 91 % 1019,3 hPa 0,0 l/m 8,0 km/h (2 Bft) SW 225 0 min 19,3 km/h (3 Bft)
13.11.2018 13:40 10,4 C 9,4 C 91 % 1019,3 hPa 0,0 l/m 8,0 km/h (2 Bft) SW 225 0 min 14,5 km/h (3 Bft)
13.11.2018 13:35 10,6 C 9,4 C 90 % 1019,3 hPa 0,0 l/m 6,4 km/h (2 Bft) W-SW 247 0 min 19,3 km/h (3 Bft)
13.11.2018 13:30 10,6 C 10,0 C 90 % 1019,3 hPa 0,2 l/m 8,0 km/h (2 Bft) S-SW 202 0 min 16,1 km/h (3 Bft)
13.11.2018 13:25 10,7 C 10,0 C 90 % 1019,3 hPa 0,0 l/m 6,4 km/h (2 Bft) SW 225 0 min 14,5 km/h (3 Bft)
13.11.2018 13:20 10,8 C 9,4 C 90 % 1019,4 hPa 0,0 l/m 8,0 km/h (2 Bft) W-SW 247 0 min 17,7 km/h (3 Bft)
13.11.2018 13:15 10,8 C 9,4 C 90 % 1019,4 hPa 0,0 l/m 9,7 km/h (2 Bft) W-SW 247 0 min 19,3 km/h (3 Bft)
13.11.2018 13:10 10,8 C 10,6 C 90 % 1019,4 hPa 0,0 l/m 4,8 km/h (1 Bft) W-SW 247 0 min 14,5 km/h (3 Bft)
13.11.2018 13:05 10,8 C 11,1 C 90 % 1019,3 hPa 0,0 l/m 8,0 km/h (2 Bft) W-SW 247 0 min 12,9 km/h (3 Bft)
13.11.2018 13:00 10,8 C 11,1 C 90 % 1019,3 hPa 0,0 l/m 11,3 km/h (2 Bft) SW 225 0 min 20,9 km/h (4 Bft)
13.11.2018 12:55 10,8 C 11,7 C 90 % 1019,3 hPa 0,0 l/m 9,7 km/h (2 Bft) SW 225 0 min 19,3 km/h (3 Bft)
13.11.2018 12:50 10,8 C 11,7 C 90 % 1019,3 hPa 0,0 l/m 9,7 km/h (2 Bft) SW 225 0 min 19,3 km/h (3 Bft)
13.11.2018 12:45 10,8 C 11,7 C 90 % 1019,3 hPa 0,0 l/m 9,7 km/h (2 Bft) SW 225 0 min 24,1 km/h (4 Bft)
13.11.2018 12:40 10,7 C 12,2 C 91 % 1019,3 hPa 0,0 l/m 11,3 km/h (2 Bft) SW 225 5 min 25,7 km/h (4 Bft)
13.11.2018 12:35 10,7 C 11,7 C 91 % 1019,3 hPa 0,0 l/m 11,3 km/h (2 Bft) SW 225 0 min 25,7 km/h (4 Bft)
13.11.2018 12:30 10,7 C 11,7 C 92 % 1019,3 hPa 0,0 l/m 11,3 km/h (2 Bft) SW 225 0 min 32,2 km/h (5 Bft)
13.11.2018 12:25 10,6 C 11,7 C 92 % 1019,2 hPa 0,0 l/m 11,3 km/h (2 Bft) SW 225 0 min 20,9 km/h (4 Bft)
13.11.2018 12:20 10,5 C 11,7 C 93 % 1019,2 hPa 0,0 l/m 12,9 km/h (3 Bft) SW 225 0 min 25,7 km/h (4 Bft)
13.11.2018 12:15 10,5 C 11,7 C 93 % 1019,2 hPa 0,0 l/m 9,7 km/h (2 Bft) SW 225 0 min 27,4 km/h (4 Bft)
13.11.2018 12:10 10,6 C 11,1 C 93 % 1019,2 hPa 0,0 l/m 9,7 km/h (2 Bft) S-SW 202 0 min 24,1 km/h (4 Bft)
13.11.2018 12:05 10,5 C 11,7 C 94 % 1019,2 hPa 0,0 l/m 6,4 km/h (2 Bft) SW 225 0 min 20,9 km/h (4 Bft)
13.11.2018 12:00 10,5 C 11,7 C 94 % 1019,1 hPa 0,0 l/m 9,7 km/h (2 Bft) SW 225 0 min 20,9 km/h (4 Bft)
13.11.2018 11:55 10,5 C 11,1 C 94 % 1019,3 hPa 0,0 l/m 11,3 km/h (2 Bft) SW 225 0 min 27,4 km/h (4 Bft)
13.11.2018 11:50 10,5 C 11,1 C 94 % 1019,1 hPa 0,0 l/m 8,0 km/h (2 Bft) SW 225 0 min 17,7 km/h (3 Bft)
13.11.2018 11:45 10,5 C 10,6 C 94 % 1019,1 hPa 0,0 l/m 8,0 km/h (2 Bft) SW 225 0 min 16,1 km/h (3 Bft)
13.11.2018 11:40 10,5 C 10,6 C 95 % 1019,1 hPa 0,0 l/m 6,4 km/h (2 Bft) SW 225 0 min 19,3 km/h (3 Bft)
13.11.2018 11:35 10,5 C 10,6 C 95 % 1019,0 hPa 0,0 l/m 8,0 km/h (2 Bft) SW 225 0 min 19,3 km/h (3 Bft)
13.11.2018 11:30 10,5 C 10,6 C 95 % 1019,0 hPa 0,0 l/m 8,0 km/h (2 Bft) SW 225 0 min 22,5 km/h (4 Bft)
13.11.2018 11:25 10,4 C 10,6 C 95 % 1019,0 hPa 0,0 l/m 9,7 km/h (2 Bft) SW 225 0 min 24,1 km/h (4 Bft)
13.11.2018 11:20 10,4 C 10,6 C 95 % 1019,0 hPa 0,0 l/m 11,3 km/h (2 Bft) SW 225 0 min 20,9 km/h (4 Bft)
13.11.2018 11:15 10,4 C 10,6 C 95 % 1019,0 hPa 0,0 l/m 8,0 km/h (2 Bft) SW 225 0 min 22,5 km/h (4 Bft)
13.11.2018 11:10 10,4 C 10,0 C 95 % 1018,9 hPa 0,0 l/m 12,9 km/h (3 Bft) SW 225 0 min 25,7 km/h (4 Bft)
13.11.2018 11:05 10,5 C 10,6 C 96 % 1018,9 hPa 0,0 l/m 9,7 km/h (2 Bft) SW 225 0 min 20,9 km/h (4 Bft)
13.11.2018 11:00 10,4 C 10,6 C 96 % 1018,9 hPa 0,0 l/m 9,7 km/h (2 Bft) S-SW 202 0 min 27,4 km/h (4 Bft)
13.11.2018 10:55 10,3 C 10,6 C 96 % 1018,8 hPa 0,0 l/m 9,7 km/h (2 Bft) S-SW 202 0 min 20,9 km/h (4 Bft)
13.11.2018 10:50 10,2 C 10,6 C 97 % 1018,9 hPa 0,0 l/m 9,7 km/h (2 Bft) S-SW 202 0 min 22,5 km/h (4 Bft)
13.11.2018 10:45 10,1 C 10,6 C 97 % 1018,8 hPa 0,0 l/m 9,7 km/h (2 Bft) S-SW 202 0 min 22,5 km/h (4 Bft)
13.11.2018 10:40 10,0 C 10,6 C 97 % 1018,9 hPa 0,0 l/m 11,3 km/h (2 Bft) S-SW 202 0 min 20,9 km/h (4 Bft)
13.11.2018 10:35 9,8 C 10,6 C 97 % 1018,9 hPa 0,0 l/m 8,0 km/h (2 Bft) S-SW 202 0 min 17,7 km/h (3 Bft)
13.11.2018 10:30 9,6 C 10,6 C 97 % 1018,9 hPa 0,0 l/m 6,4 km/h (2 Bft) S-SW 202 5 min 14,5 km/h (3 Bft)
13.11.2018 10:25 9,5 C 10,0 C 97 % 1018,7 hPa 0,0 l/m 11,3 km/h (2 Bft) S-SW 202 5 min 25,7 km/h (4 Bft)
13.11.2018 10:20 9,5 C 10,0 C 97 % 1018,6 hPa 0,0 l/m 9,7 km/h (2 Bft) S-SW 202 5 min 19,3 km/h (3 Bft)
13.11.2018 10:15 9,4 C 9,4 C 97 % 1018,6 hPa 0,0 l/m 9,7 km/h (2 Bft) S-SW 202 0 min 19,3 km/h (3 Bft)
13.11.2018 10:10 9,4 C 10,0 C 97 % 1018,5 hPa 0,0 l/m 9,7 km/h (2 Bft) S-SW 202 5 min 19,3 km/h (3 Bft)
13.11.2018 10:05 9,4 C 9,4 C 97 % 1018,5 hPa 0,0 l/m 9,7 km/h (2 Bft) SW 225 5 min 22,5 km/h (4 Bft)
13.11.2018 10:00 9,3 C 10,0 C 97 % 1018,5 hPa 0,0 l/m 8,0 km/h (2 Bft) S-SW 202 5 min 17,7 km/h (3 Bft)
13.11.2018 09:55 9,2 C 9,4 C 97 % 1018,4 hPa 0,0 l/m 9,7 km/h (2 Bft) S-SW 202 5 min 20,9 km/h (4 Bft)
13.11.2018 09:50 9,1 C 10,0 C 97 % 1018,5 hPa 0,0 l/m 8,0 km/h (2 Bft) S-SW 202 5 min 17,7 km/h (3 Bft)
13.11.2018 09:45 8,9 C 9,4 C 97 % 1018,4 hPa 0,0 l/m 9,7 km/h (2 Bft) S-SW 202 5 min 17,7 km/h (3 Bft)
13.11.2018 09:40 8,9 C 8,9 C 97 % 1018,4 hPa 0,0 l/m 8,0 km/h (2 Bft) S-SW 202 5 min 16,1 km/h (3 Bft)
13.11.2018 09:35 8,9 C 8,9 C 97 % 1018,4 hPa 0,0 l/m 6,4 km/h (2 Bft) S-SW 202 0 min 14,5 km/h (3 Bft)
13.11.2018 09:30 8,9 C 8,3 C 97 % 1018,3 hPa 0,0 l/m 9,7 km/h (2 Bft) S-SW 202 0 min 17,7 km/h (3 Bft)
13.11.2018 09:25 8,9 C 8,3 C 97 % 1018,2 hPa 0,0 l/m 9,7 km/h (2 Bft) S-SW 202 0 min 20,9 km/h (4 Bft)
13.11.2018 09:20 8,9 C 8,3 C 97 % 1018,3 hPa 0,0 l/m 9,7 km/h (2 Bft) S-SW 202 0 min 16,1 km/h (3 Bft)
13.11.2018 09:15 8,9 C 8,9 C 97 % 1018,2 hPa 0,0 l/m 8,0 km/h (2 Bft) S 180 0 min 16,1 km/h (3 Bft)
13.11.2018 09:10 8,8 C 8,9 C 97 % 1018,2 hPa 0,0 l/m 9,7 km/h (2 Bft) S 180 0 min 25,7 km/h (4 Bft)
13.11.2018 09:05 8,8 C 8,9 C 97 % 1018,2 hPa 0,0 l/m 6,4 km/h (2 Bft) S 180 0 min 14,5 km/h (3 Bft)
13.11.2018 09:00 8,7 C 8,9 C 97 % 1018,3 hPa 0,0 l/m 8,0 km/h (2 Bft) S 180 0 min 14,5 km/h (3 Bft)
13.11.2018 08:55 8,7 C 8,9 C 97 % 1018,3 hPa 0,0 l/m 9,7 km/h (2 Bft) S-SW 202 0 min 16,1 km/h (3 Bft)
13.11.2018 08:50 8,6 C 8,9 C 97 % 1018,3 hPa 0,0 l/m 9,7 km/h (2 Bft) S 180 0 min 22,5 km/h (4 Bft)
13.11.2018 08:45 8,6 C 8,9 C 97 % 1018,4 hPa 0,0 l/m 8,0 km/h (2 Bft) S 180 0 min 16,1 km/h (3 Bft)
13.11.2018 08:40 8,5 C 8,3 C 97 % 1018,4 hPa 0,0 l/m 6,4 km/h (2 Bft) S-SW 202 0 min 12,9 km/h (3 Bft)
13.11.2018 08:35 8,5 C 8,3 C 97 % 1018,4 hPa 0,0 l/m 8,0 km/h (2 Bft) S-SW 202 0 min 17,7 km/h (3 Bft)
13.11.2018 08:30 8,4 C 8,3 C 97 % 1018,3 hPa 0,0 l/m 6,4 km/h (2 Bft) S-SW 202 0 min 19,3 km/h (3 Bft)
13.11.2018 08:25 8,4 C 8,3 C 97 % 1018,4 hPa 0,0 l/m 4,8 km/h (1 Bft) S 180 0 min 11,3 km/h (2 Bft)
13.11.2018 08:20 8,4 C 8,3 C 97 % 1018,4 hPa 0,0 l/m 4,8 km/h (1 Bft) S 180 0 min 12,9 km/h (3 Bft)
13.11.2018 08:15 8,4 C 8,3 C 97 % 1018,3 hPa 0,0 l/m 6,4 km/h (2 Bft) S 180 0 min 14,5 km/h (3 Bft)
13.11.2018 08:10 8,3 C 8,3 C 97 % 1018,2 hPa 0,0 l/m 6,4 km/h (2 Bft) S 180 0 min 14,5 km/h (3 Bft)
13.11.2018 08:05 8,3 C 8,3 C 97 % 1018,4 hPa 0,0 l/m 4,8 km/h (1 Bft) S 180 0 min 11,3 km/h (2 Bft)
13.11.2018 08:00 8,3 C 7,8 C 97 % 1018,3 hPa 0,0 l/m 6,4 km/h (2 Bft) S 180 0 min 12,9 km/h (3 Bft)
13.11.2018 07:55 8,3 C 7,8 C 97 % 1018,4 hPa 0,0 l/m 6,4 km/h (2 Bft) S-SW 202 0 min 14,5 km/h (3 Bft)
13.11.2018 07:50 8,3 C 7,8 C 97 % 1018,3 hPa 0,0 l/m 4,8 km/h (1 Bft) S 180 0 min 9,7 km/h (2 Bft)
13.11.2018 07:45 8,3 C 7,2 C 97 % 1018,1 hPa 0,0 l/m 4,8 km/h (1 Bft) S 180 0 min 9,7 km/h (2 Bft)
13.11.2018 07:40 8,3 C 7,8 C 97 % 1018,1 hPa 0,0 l/m 4,8 km/h (1 Bft) S-SW 202 0 min 12,9 km/h (3 Bft)
13.11.2018 07:35 8,3 C 7,8 C 97 % 1018,1 hPa 0,0 l/m 4,8 km/h (1 Bft) S 180 0 min 9,7 km/h (2 Bft)
13.11.2018 07:30 8,3 C 7,8 C 97 % 1018,2 hPa 0,0 l/m 4,8 km/h (1 Bft) S 180 0 min 11,3 km/h (2 Bft)
13.11.2018 07:25 8,3 C 7,8 C 97 % 1018,2 hPa 0,0 l/m 4,8 km/h (1 Bft) S 180 0 min 9,7 km/h (2 Bft)
13.11.2018 07:20 8,3 C 7,8 C 97 % 1018,3 hPa 0,0 l/m 4,8 km/h (1 Bft) S-SW 202 0 min 11,3 km/h (2 Bft)
13.11.2018 07:15 8,3 C 7,8 C 97 % 1018,3 hPa 0,0 l/m 4,8 km/h (1 Bft) S-SW 202 0 min 9,7 km/h (2 Bft)
13.11.2018 07:10 8,3 C 7,8 C 97 % 1018,3 hPa 0,0 l/m 4,8 km/h (1 Bft) S 180 0 min 9,7 km/h (2 Bft)
13.11.2018 07:05 8,3 C 7,8 C 97 % 1018,4 hPa 0,0 l/m 6,4 km/h (2 Bft) S-SW 202 0 min 14,5 km/h (3 Bft)
13.11.2018 07:00 8,2 C 7,8 C 97 % 1018,3 hPa 0,0 l/m 6,4 km/h (2 Bft) S 180 0 min 9,7 km/h (2 Bft)
13.11.2018 06:55 8,2 C 7,8 C 97 % 1018,3 hPa 0,0 l/m 4,8 km/h (1 Bft) S-SW 202 0 min 9,7 km/h (2 Bft)
13.11.2018 06:50 8,2 C 7,8 C 97 % 1018,3 hPa 0,0 l/m 4,8 km/h (1 Bft) S 180 0 min 11,3 km/h (2 Bft)
13.11.2018 06:45 8,2 C 7,8 C 97 % 1018,3 hPa 0,0 l/m 3,2 km/h (1 Bft) S-SW 202 0 min 9,7 km/h (2 Bft)
13.11.2018 06:40 8,2 C 7,2 C 97 % 1018,2 hPa 0,0 l/m 4,8 km/h (1 Bft) S 180 0 min 9,7 km/h (2 Bft)
13.11.2018 06:35 8,2 C 7,2 C 97 % 1018,2 hPa 0,0 l/m 3,2 km/h (1 Bft) S 180 0 min 8,0 km/h (2 Bft)
13.11.2018 06:30 8,2 C 7,8 C 97 % 1018,3 hPa 0,0 l/m 3,2 km/h (1 Bft) S 180 0 min 9,7 km/h (2 Bft)
13.11.2018 06:25 8,2 C 7,2 C 97 % 1018,2 hPa 0,0 l/m 4,8 km/h (1 Bft) S 180 0 min 9,7 km/h (2 Bft)
13.11.2018 06:20 8,2 C 7,2 C 97 % 1018,2 hPa 0,0 l/m 4,8 km/h (1 Bft) S 180 0 min 6,4 km/h (2 Bft)
13.11.2018 06:15 8,3 C 7,2 C 97 % 1018,0 hPa 0,0 l/m 4,8 km/h (1 Bft) S 180 0 min 9,7 km/h (2 Bft)
13.11.2018 06:10 8,3 C 7,2 C 97 % 1018,0 hPa 0,0 l/m 4,8 km/h (1 Bft) S 180 0 min 11,3 km/h (2 Bft)
13.11.2018 06:05 8,3 C 7,2 C 97 % 1018,0 hPa 0,0 l/m 4,8 km/h (1 Bft) S 180 0 min 8,0 km/h (2 Bft)
13.11.2018 06:00 8,3 C 7,2 C 97 % 1017,7 hPa 0,0 l/m 3,2 km/h (1 Bft) S 180 0 min 9,7 km/h (2 Bft)
13.11.2018 05:55 8,3 C 7,2 C 97 % 1017,7 hPa 0,0 l/m 3,2 km/h (1 Bft) S 180 0 min 6,4 km/h (2 Bft)
13.11.2018 05:50 8,3 C 7,2 C 97 % 1017,7 hPa 0,0 l/m 3,2 km/h (1 Bft) S 180 0 min 6,4 km/h (2 Bft)
13.11.2018 05:45 8,3 C 7,2 C 97 % 1017,8 hPa 0,0 l/m 3,2 km/h (1 Bft) S 180 0 min 8,0 km/h (2 Bft)
13.11.2018 05:40 8,3 C 7,8 C 97 % 1017,9 hPa 0,0 l/m 4,8 km/h (1 Bft) S 180 0 min 8,0 km/h (2 Bft)
13.11.2018 05:35 8,4 C 7,8 C 97 % 1017,9 hPa 0,0 l/m 3,2 km/h (1 Bft) S-SW 202 0 min 8,0 km/h (2 Bft)
13.11.2018 05:30 8,4 C 7,8 C 97 % 1017,9 hPa 0,0 l/m 3,2 km/h (1 Bft) S-SW 202 0 min 8,0 km/h (2 Bft)
13.11.2018 05:25 8,4 C 7,8 C 97 % 1017,7 hPa 0,0 l/m 4,8 km/h (1 Bft) S 180 0 min 8,0 km/h (2 Bft)
13.11.2018 05:20 8,4 C 7,8 C 97 % 1017,5 hPa 0,0 l/m 3,2 km/h (1 Bft) S 180 0 min 8,0 km/h (2 Bft)
13.11.2018 05:15 8,4 C 7,8 C 97 % 1017,5 hPa 0,0 l/m 3,2 km/h (1 Bft) S 180 0 min 8,0 km/h (2 Bft)
13.11.2018 05:10 8,4 C 7,8 C 97 % 1017,5 hPa 0,0 l/m 4,8 km/h (1 Bft) S 180 0 min 8,0 km/h (2 Bft)
13.11.2018 05:05 8,5 C 7,8 C 97 % 1017,5 hPa 0,0 l/m 3,2 km/h (1 Bft) S 180 0 min 8,0 km/h (2 Bft)
13.11.2018 05:00 8,5 C 7,8 C 97 % 1017,5 hPa 0,0 l/m 3,2 km/h (1 Bft) S 180 0 min 6,4 km/h (2 Bft)
13.11.2018 04:55 8,5 C 7,8 C 97 % 1017,6 hPa 0,0 l/m 3,2 km/h (1 Bft) S 180 0 min 8,0 km/h (2 Bft)
13.11.2018 04:50 8,6 C 7,8 C 97 % 1017,6 hPa 0,0 l/m 4,8 km/h (1 Bft) S 180 0 min 8,0 km/h (2 Bft)
13.11.2018 04:45 8,6 C 7,8 C 97 % 1017,6 hPa 0,0 l/m 3,2 km/h (1 Bft) S 180 0 min 6,4 km/h (2 Bft)
13.11.2018 04:40 8,6 C 7,8 C 97 % 1017,6 hPa 0,0 l/m 3,2 km/h (1 Bft) S-SW 202 0 min 9,7 km/h (2 Bft)
13.11.2018 04:35 8,6 C 7,8 C 97 % 1017,9 hPa 0,0 l/m 4,8 km/h (1 Bft) S-SW 202 0 min 8,0 km/h (2 Bft)
13.11.2018 04:30 8,6 C 7,8 C 97 % 1017,8 hPa 0,0 l/m 3,2 km/h (1 Bft) S-SW 202 0 min 6,4 km/h (2 Bft)
13.11.2018 04:25 8,6 C 7,8 C 97 % 1017,9 hPa 0,0 l/m 3,2 km/h (1 Bft) S 180 0 min 8,0 km/h (2 Bft)
13.11.2018 04:20 8,6 C 8,3 C 97 % 1017,8 hPa 0,0 l/m 4,8 km/h (1 Bft) S 180 0 min 8,0 km/h (2 Bft)
13.11.2018 04:15 8,6 C 7,8 C 97 % 1017,8 hPa 0,0 l/m 3,2 km/h (1 Bft) S 180 0 min 8,0 km/h (2 Bft)
13.11.2018 04:10 8,6 C 8,3 C 97 % 1017,8 hPa 0,0 l/m 3,2 km/h (1 Bft) S-SW 202 0 min 8,0 km/h (2 Bft)
13.11.2018 04:05 8,6 C 8,3 C 97 % 1017,9 hPa 0,0 l/m 4,8 km/h (1 Bft) S-SW 202 0 min 11,3 km/h (2 Bft)
13.11.2018 04:00 8,6 C 8,3 C 97 % 1017,8 hPa 0,0 l/m 4,8 km/h (1 Bft) S-SW 202 0 min 9,7 km/h (2 Bft)
13.11.2018 03:55 8,6 C 8,3 C 97 % 1017,8 hPa 0,0 l/m 4,8 km/h (1 Bft) S-SW 202 0 min 11,3 km/h (2 Bft)
13.11.2018 03:50 8,6 C 8,3 C 97 % 1017,8 hPa 0,0 l/m 4,8 km/h (1 Bft) S-SW 202 0 min 9,7 km/h (2 Bft)
13.11.2018 03:45 8,6 C 7,8 C 97 % 1017,7 hPa 0,0 l/m 4,8 km/h (1 Bft) S 180 0 min 8,0 km/h (2 Bft)
13.11.2018 03:40 8,6 C 8,3 C 97 % 1017,7 hPa 0,0 l/m 4,8 km/h (1 Bft) S-SW 202 0 min 9,7 km/h (2 Bft)
13.11.2018 03:35 8,6 C 8,3 C 97 % 1017,7 hPa 0,0 l/m 4,8 km/h (1 Bft) S 180 0 min 8,0 km/h (2 Bft)
13.11.2018 03:30 8,7 C 8,3 C 97 % 1017,7 hPa 0,0 l/m 4,8 km/h (1 Bft) S 180 0 min 9,7 km/h (2 Bft)
13.11.2018 03:25 8,7 C 8,3 C 97 % 1017,9 hPa 0,0 l/m 4,8 km/h (1 Bft) S-SW 202 0 min 12,9 km/h (3 Bft)
13.11.2018 03:20 8,7 C 8,3 C 97 % 1017,9 hPa 0,0 l/m 4,8 km/h (1 Bft) S-SW 202 0 min 11,3 km/h (2 Bft)
13.11.2018 03:15 8,7 C 8,3 C 97 % 1018,0 hPa 0,0 l/m 3,2 km/h (1 Bft) S-SW 202 0 min 6,4 km/h (2 Bft)
13.11.2018 03:10 8,8 C 7,8 C 97 % 1018,0 hPa 0,0 l/m 3,2 km/h (1 Bft) S-SW 202 0 min 6,4 km/h (2 Bft)
13.11.2018 03:05 8,8 C 7,8 C 97 % 1018,0 hPa 0,0 l/m 1,6 km/h (1 Bft) S 180 0 min 6,4 km/h (2 Bft)
13.11.2018 03:00 8,8 C 8,3 C 97 % 1017,9 hPa 0,0 l/m 3,2 km/h (1 Bft) S 180 0 min 6,4 km/h (2 Bft)
13.11.2018 02:55 8,9 C 8,3 C 97 % 1018,0 hPa 0,0 l/m 3,2 km/h (1 Bft) S 180 0 min 6,4 km/h (2 Bft)
13.11.2018 02:50 8,9 C 8,3 C 97 % 1017,9 hPa 0,0 l/m 3,2 km/h (1 Bft) S-SW 202 0 min 9,7 km/h (2 Bft)
13.11.2018 02:45 8,9 C 8,3 C 97 % 1018,1 hPa 0,0 l/m 3,2 km/h (1 Bft) S-SW 202 0 min 8,0 km/h (2 Bft)
13.11.2018 02:40 8,9 C 8,3 C 97 % 1018,2 hPa 0,0 l/m 3,2 km/h (1 Bft) SW 225 0 min 8,0 km/h (2 Bft)
13.11.2018 02:35 8,9 C 8,3 C 97 % 1018,2 hPa 0,0 l/m 3,2 km/h (1 Bft) SW 225 0 min 8,0 km/h (2 Bft)
13.11.2018 02:30 8,9 C 8,9 C 97 % 1018,1 hPa 0,0 l/m 3,2 km/h (1 Bft) S 180 0 min 12,9 km/h (3 Bft)
13.11.2018 02:25 8,9 C 8,9 C 97 % 1018,1 hPa 0,0 l/m 4,8 km/h (1 Bft) S-SW 202 0 min 11,3 km/h (2 Bft)
13.11.2018 02:20 8,9 C 8,9 C 97 % 1018,0 hPa 0,0 l/m 4,8 km/h (1 Bft) S 180 0 min 9,7 km/h (2 Bft)
13.11.2018 02:15 8,9 C 8,9 C 97 % 1018,0 hPa 0,0 l/m 4,8 km/h (1 Bft) S-SW 202 0 min 11,3 km/h (2 Bft)
13.11.2018 02:10 8,9 C 8,9 C 97 % 1018,2 hPa 0,0 l/m 4,8 km/h (1 Bft) SW 225 0 min 9,7 km/h (2 Bft)
13.11.2018 02:05 8,9 C 8,9 C 97 % 1018,3 hPa 0,0 l/m 4,8 km/h (1 Bft) SW 225 0 min 11,3 km/h (2 Bft)
13.11.2018 02:00 8,9 C 8,9 C 97 % 1018,1 hPa 0,0 l/m 4,8 km/h (1 Bft) SW 225 0 min 12,9 km/h (3 Bft)
13.11.2018 01:55 8,9 C 8,9 C 97 % 1018,2 hPa 0,0 l/m 4,8 km/h (1 Bft) SW 225 0 min 9,7 km/h (2 Bft)
13.11.2018 01:50 8,9 C 8,9 C 97 % 1018,1 hPa 0,0 l/m 6,4 km/h (2 Bft) SW 225 0 min 14,5 km/h (3 Bft)
13.11.2018 01:45 8,9 C 8,9 C 97 % 1018,0 hPa 0,0 l/m 4,8 km/h (1 Bft) S-SW 202 0 min 12,9 km/h (3 Bft)
13.11.2018 01:40 8,9 C 8,9 C 97 % 1017,9 hPa 0,0 l/m 4,8 km/h (1 Bft) S 180 0 min 11,3 km/h (2 Bft)
13.11.2018 01:35 9,0 C 8,9 C 97 % 1017,7 hPa 0,0 l/m 3,2 km/h (1 Bft) S-SW 202 0 min 8,0 km/h (2 Bft)
13.11.2018 01:30 9,0 C 8,9 C 97 % 1017,8 hPa 0,0 l/m 4,8 km/h (1 Bft) S-SW 202 0 min 9,7 km/h (2 Bft)
13.11.2018 01:25 9,0 C 8,9 C 97 % 1017,7 hPa 0,0 l/m 4,8 km/h (1 Bft) SW 225 0 min 9,7 km/h (2 Bft)
13.11.2018 01:20 9,0 C 8,9 C 97 % 1017,6 hPa 0,0 l/m 4,8 km/h (1 Bft) S-SW 202 0 min 11,3 km/h (2 Bft)
13.11.2018 01:15 9,1 C 8,9 C 97 % 1017,5 hPa 0,0 l/m 4,8 km/h (1 Bft) S-SW 202 0 min 12,9 km/h (3 Bft)
13.11.2018 01:10 9,1 C 8,9 C 97 % 1017,6 hPa 0,0 l/m 4,8 km/h (1 Bft) S-SW 202 0 min 9,7 km/h (2 Bft)
13.11.2018 01:05 9,1 C 8,9 C 97 % 1017,5 hPa 0,0 l/m 4,8 km/h (1 Bft) S-SW 202 0 min 12,9 km/h (3 Bft)
13.11.2018 01:00 9,1 C 8,9 C 97 % 1017,4 hPa 0,0 l/m 4,8 km/h (1 Bft) S-SW 202 0 min 8,0 km/h (2 Bft)
13.11.2018 00:55 9,2 C 8,9 C 97 % 1017,4 hPa 0,0 l/m 4,8 km/h (1 Bft) S-SW 202 0 min 9,7 km/h (2 Bft)
13.11.2018 00:50 9,2 C 8,9 C 97 % 1017,5 hPa 0,0 l/m 3,2 km/h (1 Bft) S-SW 202 0 min 8,0 km/h (2 Bft)
13.11.2018 00:45 9,3 C 8,9 C 97 % 1017,5 hPa 0,0 l/m 1,6 km/h (1 Bft) S-SW 202 0 min 4,8 km/h (1 Bft)
13.11.2018 00:40 9,3 C 8,9 C 97 % 1017,5 hPa 0,0 l/m 3,2 km/h (1 Bft) SW 225 0 min 8,0 km/h (2 Bft)
13.11.2018 00:35 9,3 C 8,9 C 97 % 1017,3 hPa 0,0 l/m 1,6 km/h (1 Bft) SW 225 0 min 3,2 km/h (1 Bft)
13.11.2018 00:30 9,4 C 8,9 C 97 % 1017,2 hPa 0,0 l/m 3,2 km/h (1 Bft) SW 225 0 min 8,0 km/h (2 Bft)
13.11.2018 00:25 9,4 C 8,9 C 97 % 1017,3 hPa 0,0 l/m 1,6 km/h (1 Bft) SW 225 0 min 6,4 km/h (2 Bft)
13.11.2018 00:20 9,4 C 8,9 C 97 % 1017,2 hPa 0,0 l/m 3,2 km/h (1 Bft) SW 225 0 min 6,4 km/h (2 Bft)
13.11.2018 00:15 9,5 C 8,9 C 97 % 1017,0 hPa 0,0 l/m 1,6 km/h (1 Bft) W 270 0 min 6,4 km/h (2 Bft)
13.11.2018 00:10 9,6 C 8,9 C 97 % 1017,0 hPa 0,0 l/m 3,2 km/h (1 Bft) SW 225 0 min 6,4 km/h (2 Bft)
13.11.2018 00:05 9,6 C 9,4 C 97 % 1017,0 hPa 0,0 l/m 3,2 km/h (1 Bft) W-SW 247 0 min 8,0 km/h (2 Bft)
13.11.2018 00:00 9,6 C 9,4 C 97 % 1017,0 hPa 0,0 l/m 3,2 km/h (1 Bft) SW 225 0 min 9,7 km/h (2 Bft)
_ Min-Zeit 06:15 05:45 12:45 00:00 - 00:15 - - - 00:35
Minimum _ 8,2 C 7,2 C 90 % 1017,0 hPa - 1,6 km/h (1 Bft) - - - 3,2 km/h (1 Bft)
_ Max-Zeit 12:40 15:05 00:00 20:50 13:30 11:10 - - 09:40 12:30
Maximum _ 10,8 C 12,8 C 97 % 1023,1 hPa 0,2 l/m 12,9 km/h
SW (3 Bft)
- - 5 min 32,2 km/h
SW (5 Bft)
Durchschnitt _ 9,4 C 9,0 C 95 % 1019,2 hPa #0,8 l/m 6,5 km/h (2 Bft) SW - #1:45 h 14,8 km/h (3 Bft)